PWSweather.com
Personal Weather Stations
Station Observations
J24K28P63
Vysocina, PocatkyCZ 39464

VysocinaPocatkyCZ 39464

Lat: 49.2594238, Lon: 15.2331769

Elevation: 2011

Station Type: Vantage Pro2+

http://meteo-jirkalina.com

High Low Average
Temperature 96.2°F35.7°C 55.0°F12.8°C 80.8°F27.1°C
Dew Point 60.9°F16.1°C 40.3°F4.6°C 54.3°F12.4°C
Winds 7.9 mph 12.7 kmh Calm Calm 2.0 mph E3.2 kmh E
Wind Gusts 11.0 mph17.7 kmh -- 4.0 mph6.4 kmh
Humidity 83% 24% 43%
Pressure 30.00 in1015.9 mb 29.83 in1010.2 mb -
Precipitation 0.00 in0.0 mm - -
Hour Temp Dew Point Humidity Winds Wind Gusts Pressure Precip Precip Rate Daily Precip Total
12:00 AM 63.9°F17.7°C 40.3°F4.6°C 42% Calm Calm -- 29.95 in1014.2 mb - 0.00 in0.0 mm 0.00 in0.0 mm
12:30 AM 62.9°F17.2°C 41.8°F5.4°C 46% Calm Calm -- 29.95 in1014.2 mb - 0.00 in0.0 mm 0.00 in0.0 mm
01:00 AM 63.1°F17.3°C 43.1°F6.2°C 48% 2.0 mph NE3.2 kmh NE 3.0 mph4.8 kmh 29.95 in1014.2 mb - 0.00 in0.0 mm 0.00 in0.0 mm
01:30 AM 64.7°F18.2°C 44.0°F6.7°C 47% 1.6 mph ESE2.6 kmh ESE 5.0 mph8.0 kmh 29.94 in1013.9 mb - 0.00 in0.0 mm 0.00 in0.0 mm
02:00 AM 64.5°F18.1°C 44.9°F7.2°C 49% 0.4 mph E0.6 kmh E -- 29.93 in1013.5 mb - 0.00 in0.0 mm 0.00 in0.0 mm
02:30 AM 64.5°F18.1°C 45.4°F7.4°C 50% 2.2 mph E3.5 kmh E 4.0 mph6.4 kmh 29.92 in1013.2 mb - 0.00 in0.0 mm 0.00 in0.0 mm
03:00 AM 63.2°F17.3°C 46.3°F7.9°C 54% Calm Calm -- 29.92 in1013.2 mb - 0.00 in0.0 mm 0.00 in0.0 mm
03:30 AM 60.9°F16.1°C 47.4°F8.6°C 61% Calm Calm -- 29.92 in1013.2 mb - 0.00 in0.0 mm 0.00 in0.0 mm
04:00 AM 59.2°F15.1°C 48.2°F9.0°C 67% Calm Calm -- 29.92 in1013.2 mb - 0.00 in0.0 mm 0.00 in0.0 mm
04:30 AM 58.1°F14.5°C 49.9°F9.9°C 74% Calm Calm -- 29.92 in1013.2 mb - 0.00 in0.0 mm 0.00 in0.0 mm
05:00 AM 55.0°F12.8°C 49.9°F9.9°C 83% Calm Calm -- 29.98 in1015.2 mb - 0.00 in0.0 mm 0.00 in0.0 mm
05:10 AM 55.0°F12.8°C 49.9°F9.9°C 83% Calm Calm -- 29.98 in1015.2 mb - 0.00 in0.0 mm 0.00 in0.0 mm
05:20 AM 55.3°F12.9°C 49.9°F9.9°C 82% Calm Calm -- 29.98 in1015.2 mb - 0.00 in0.0 mm 0.00 in0.0 mm
05:30 AM 55.9°F13.3°C 50.2°F10.1°C 81% 1.0 mph SE1.6 kmh SE 2.0 mph3.2 kmh 29.99 in1015.6 mb - 0.00 in0.0 mm 0.00 in0.0 mm
05:40 AM 57.4°F14.1°C 51.3°F10.7°C 80% Calm Calm 1.0 mph1.6 kmh 29.98 in1015.2 mb - 0.00 in0.0 mm 0.00 in0.0 mm
05:50 AM 60.8°F16.0°C 53.5°F11.9°C 77% 2.0 mph SE3.2 kmh SE 3.0 mph4.8 kmh 29.99 in1015.6 mb - 0.00 in0.0 mm 0.00 in0.0 mm
06:00 AM 63.8°F17.7°C 54.2°F12.3°C 71% 1.0 mph SE1.6 kmh SE 5.0 mph8.0 kmh 29.99 in1015.6 mb - 0.00 in0.0 mm 0.00 in0.0 mm
06:10 AM 64.2°F17.9°C 54.2°F12.3°C 70% 1.0 mph SE1.6 kmh SE 3.0 mph4.8 kmh 30.00 in1015.9 mb - 0.00 in0.0 mm 0.00 in0.0 mm
06:20 AM 65.6°F18.7°C 54.7°F12.6°C 68% 1.0 mph SE1.6 kmh SE 3.0 mph4.8 kmh 29.99 in1015.6 mb - 0.00 in0.0 mm 0.00 in0.0 mm
06:30 AM 66.7°F19.3°C 55.4°F13.0°C 67% 2.0 mph SE3.2 kmh SE 3.0 mph4.8 kmh 29.99 in1015.6 mb - 0.00 in0.0 mm 0.00 in0.0 mm
06:40 AM 67.2°F19.6°C 55.1°F12.8°C 65% 2.0 mph SE3.2 kmh SE 5.0 mph8.0 kmh 30.00 in1015.9 mb - 0.00 in0.0 mm 0.00 in0.0 mm
06:50 AM 67.7°F19.8°C 55.5°F13.1°C 65% 2.0 mph SE3.2 kmh SE 7.0 mph11.3 kmh 29.99 in1015.6 mb - 0.00 in0.0 mm 0.00 in0.0 mm
07:00 AM 68.5°F20.3°C 55.8°F13.2°C 64% 2.0 mph ESE3.2 kmh ESE 3.0 mph4.8 kmh 30.00 in1015.9 mb - 0.00 in0.0 mm 0.00 in0.0 mm
07:10 AM 69.2°F20.7°C 55.6°F13.1°C 62% 3.0 mph E4.8 kmh E 7.0 mph11.3 kmh 30.00 in1015.9 mb - 0.00 in0.0 mm 0.00 in0.0 mm
07:20 AM 70.2°F21.2°C 56.6°F13.7°C 62% 2.0 mph ESE3.2 kmh ESE 3.0 mph4.8 kmh 30.00 in1015.9 mb - 0.00 in0.0 mm 0.00 in0.0 mm
07:30 AM 70.2°F21.2°C 56.2°F13.4°C 61% 3.0 mph E4.8 kmh E 6.0 mph9.7 kmh 30.00 in1015.9 mb - 0.00 in0.0 mm 0.00 in0.0 mm
07:40 AM 73.3°F22.9°C 57.1°F13.9°C 57% 3.0 mph ESE4.8 kmh ESE 8.0 mph12.9 kmh 30.00 in1015.9 mb - 0.00 in0.0 mm 0.00 in0.0 mm
07:50 AM 72.9°F22.7°C 56.7°F13.7°C 57% 3.0 mph ESE4.8 kmh ESE 6.0 mph9.7 kmh 30.00 in1015.9 mb - 0.00 in0.0 mm 0.00 in0.0 mm
08:00 AM 74.0°F23.3°C 56.3°F13.5°C 54% 3.0 mph ESE4.8 kmh ESE 3.0 mph4.8 kmh 30.00 in1015.9 mb - 0.00 in0.0 mm 0.00 in0.0 mm
08:10 AM 75.1°F23.9°C 56.2°F13.4°C 52% 2.0 mph E3.2 kmh E 3.0 mph4.8 kmh 30.00 in1015.9 mb - 0.00 in0.0 mm 0.00 in0.0 mm
08:20 AM 76.0°F24.4°C 57.7°F14.3°C 53% 1.0 mph E1.6 kmh E 3.0 mph4.8 kmh 29.99 in1015.6 mb - 0.00 in0.0 mm 0.00 in0.0 mm
08:30 AM 77.4°F25.2°C 57.3°F14.1°C 50% 1.0 mph ESE1.6 kmh ESE 2.0 mph3.2 kmh 29.99 in1015.6 mb - 0.00 in0.0 mm 0.00 in0.0 mm
08:40 AM 79.6°F26.4°C 56.4°F13.6°C 45% 2.0 mph ESE3.2 kmh ESE 3.0 mph4.8 kmh 29.99 in1015.6 mb - 0.00 in0.0 mm 0.00 in0.0 mm
08:50 AM 80.1°F26.7°C 56.8°F13.8°C 45% 2.0 mph E3.2 kmh E 6.0 mph9.7 kmh 29.99 in1015.6 mb - 0.00 in0.0 mm 0.00 in0.0 mm
09:00 AM 80.3°F26.8°C 56.4°F13.6°C 44% 2.0 mph E3.2 kmh E 3.0 mph4.8 kmh 29.98 in1015.2 mb - 0.00 in0.0 mm 0.00 in0.0 mm
09:10 AM 81.2°F27.3°C 56.6°F13.7°C 43% 2.0 mph E3.2 kmh E 3.0 mph4.8 kmh 29.98 in1015.2 mb - 0.00 in0.0 mm 0.00 in0.0 mm
09:20 AM 81.6°F27.6°C 57.0°F13.9°C 43% 5.0 mph E8.0 kmh E 5.0 mph8.0 kmh 29.98 in1015.2 mb - 0.00 in0.0 mm 0.00 in0.0 mm
09:30 AM 82.4°F28.0°C 57.7°F14.3°C 43% 3.0 mph E4.8 kmh E 6.0 mph9.7 kmh 29.98 in1015.2 mb - 0.00 in0.0 mm 0.00 in0.0 mm
09:40 AM 84.1°F28.9°C 57.2°F14.0°C 40% Calm Calm 2.0 mph3.2 kmh 29.98 in1015.2 mb - 0.00 in0.0 mm 0.00 in0.0 mm
09:50 AM 84.5°F29.2°C 58.2°F14.6°C 41% 2.0 mph E3.2 kmh E 3.0 mph4.8 kmh 29.98 in1015.2 mb - 0.00 in0.0 mm 0.00 in0.0 mm
10:00 AM 86.2°F30.1°C 58.3°F14.6°C 39% 3.0 mph E4.8 kmh E 7.0 mph11.3 kmh 29.97 in1014.9 mb - 0.00 in0.0 mm 0.00 in0.0 mm
10:10 AM 85.4°F29.7°C 58.4°F14.7°C 40% 5.0 mph E8.0 kmh E 5.0 mph8.0 kmh 29.97 in1014.9 mb - 0.00 in0.0 mm 0.00 in0.0 mm
10:20 AM 85.4°F29.7°C 58.4°F14.7°C 40% Calm Calm 2.0 mph3.2 kmh 29.97 in1014.9 mb - 0.00 in0.0 mm 0.00 in0.0 mm
10:30 AM 86.0°F30.0°C 58.2°F14.6°C 39% 2.0 mph E3.2 kmh E 3.0 mph4.8 kmh 29.96 in1014.6 mb - 0.00 in0.0 mm 0.00 in0.0 mm
10:40 AM 87.4°F30.8°C 58.7°F14.8°C 38% 5.0 mph E8.0 kmh E 9.0 mph14.5 kmh 29.96 in1014.6 mb - 0.00 in0.0 mm 0.00 in0.0 mm
10:50 AM 87.0°F30.6°C 59.0°F15.0°C 39% 3.0 mph ESE4.8 kmh ESE 7.0 mph11.3 kmh 29.96 in1014.6 mb - 0.00 in0.0 mm 0.00 in0.0 mm
11:00 AM 88.8°F31.6°C 59.1°F15.1°C 37% 2.0 mph ESE3.2 kmh ESE 3.0 mph4.8 kmh 29.95 in1014.2 mb - 0.00 in0.0 mm 0.00 in0.0 mm
11:10 AM 88.0°F31.1°C 58.5°F14.7°C 37% 2.0 mph E3.2 kmh E 3.0 mph4.8 kmh 29.95 in1014.2 mb - 0.00 in0.0 mm 0.00 in0.0 mm
11:20 AM 88.3°F31.3°C 60.2°F15.7°C 39% 1.0 mph E1.6 kmh E 5.0 mph8.0 kmh 29.95 in1014.2 mb - 0.00 in0.0 mm 0.00 in0.0 mm
11:30 AM 82.2°F27.9°C 48.6°F9.2°C 31% 7.9 mph E12.7 kmh E 11.0 mph17.7 kmh 29.91 in1012.9 mb - 0.00 in0.0 mm 0.00 in0.0 mm
11:40 AM 90.4°F32.4°C 58.3°F14.6°C 34% 5.0 mph SE8.0 kmh SE 9.0 mph14.5 kmh 29.94 in1013.9 mb - 0.00 in0.0 mm 0.00 in0.0 mm
11:50 AM 89.3°F31.8°C 58.1°F14.5°C 35% 3.0 mph E4.8 kmh E 6.0 mph9.7 kmh 29.93 in1013.5 mb - 0.00 in0.0 mm 0.00 in0.0 mm
12:00 PM 90.3°F32.4°C 58.1°F14.5°C 34% 3.0 mph E4.8 kmh E 3.0 mph4.8 kmh 29.93 in1013.5 mb - 0.00 in0.0 mm 0.00 in0.0 mm
12:10 PM 90.0°F32.2°C 57.9°F14.4°C 34% 3.0 mph ENE4.8 kmh ENE 7.0 mph11.3 kmh 29.93 in1013.5 mb - 0.00 in0.0 mm 0.00 in0.0 mm
12:20 PM 89.6°F32.0°C 56.7°F13.7°C 33% Calm Calm 2.0 mph3.2 kmh 29.92 in1013.2 mb - 0.00 in0.0 mm 0.00 in0.0 mm
12:30 PM 83.8°F28.8°C 49.1°F9.5°C 30% 3.2 mph SSE5.1 kmh SSE 7.0 mph11.3 kmh 29.89 in1012.2 mb - 0.00 in0.0 mm 0.00 in0.0 mm
12:40 PM 92.2°F33.4°C 58.9°F14.9°C 33% 3.0 mph NE4.8 kmh NE 6.0 mph9.7 kmh 29.91 in1012.9 mb - 0.00 in0.0 mm 0.00 in0.0 mm
12:50 PM 91.4°F33.0°C 56.5°F13.6°C 31% 3.0 mph S4.8 kmh S 5.0 mph8.0 kmh 29.91 in1012.9 mb - 0.00 in0.0 mm 0.00 in0.0 mm
01:00 PM 93.0°F33.9°C 57.0°F13.9°C 30% 5.0 mph SE8.0 kmh SE 8.0 mph12.9 kmh 29.91 in1012.9 mb - 0.00 in0.0 mm 0.00 in0.0 mm
01:10 PM 93.5°F34.2°C 56.5°F13.6°C 29% 5.0 mph NE8.0 kmh NE 10.0 mph16.1 kmh 29.90 in1012.5 mb - 0.00 in0.0 mm 0.00 in0.0 mm
01:20 PM 92.6°F33.7°C 55.7°F13.2°C 29% 3.0 mph ENE4.8 kmh ENE 8.0 mph12.9 kmh 29.90 in1012.5 mb - 0.00 in0.0 mm 0.00 in0.0 mm
01:30 PM 85.1°F29.5°C 47.4°F8.6°C 27% 1.9 mph ESE3.1 kmh ESE 5.0 mph8.0 kmh 29.88 in1011.9 mb - 0.00 in0.0 mm 0.00 in0.0 mm
01:40 PM 93.2°F34.0°C 55.2°F12.9°C 28% 2.0 mph E3.2 kmh E 5.0 mph8.0 kmh 29.89 in1012.2 mb - 0.00 in0.0 mm 0.00 in0.0 mm
01:50 PM 93.8°F34.3°C 55.8°F13.2°C 28% 6.0 mph E9.7 kmh E 9.0 mph14.5 kmh 29.89 in1012.2 mb - 0.00 in0.0 mm 0.00 in0.0 mm
02:00 PM 92.8°F33.8°C 54.9°F12.7°C 28% 3.0 mph ESE4.8 kmh ESE 10.0 mph16.1 kmh 29.88 in1011.9 mb - 0.00 in0.0 mm 0.00 in0.0 mm
02:10 PM 94.0°F34.4°C 55.9°F13.3°C 28% 3.0 mph ENE4.8 kmh ENE 7.0 mph11.3 kmh 29.88 in1011.9 mb - 0.00 in0.0 mm 0.00 in0.0 mm
02:20 PM 94.4°F34.7°C 55.3°F12.9°C 27% 3.0 mph E4.8 kmh E 3.0 mph4.8 kmh 29.88 in1011.9 mb - 0.00 in0.0 mm 0.00 in0.0 mm
02:30 PM 86.1°F30.1°C 46.2°F7.9°C 25% 5.1 mph E8.2 kmh E 9.0 mph14.5 kmh 29.87 in1011.5 mb - 0.00 in0.0 mm 0.00 in0.0 mm
02:40 PM 93.7°F34.3°C 54.7°F12.6°C 27% 3.0 mph ENE4.8 kmh ENE 5.0 mph8.0 kmh 29.87 in1011.5 mb - 0.00 in0.0 mm 0.00 in0.0 mm
02:50 PM 94.7°F34.8°C 54.5°F12.5°C 26% 6.0 mph E9.7 kmh E 9.0 mph14.5 kmh 29.87 in1011.5 mb - 0.00 in0.0 mm 0.00 in0.0 mm
03:00 PM 94.9°F34.9°C 53.6°F12.0°C 25% 2.0 mph SE3.2 kmh SE 2.0 mph3.2 kmh 29.87 in1011.5 mb - 0.00 in0.0 mm 0.00 in0.0 mm
03:10 PM 95.2°F35.1°C 52.7°F11.5°C 24% 2.0 mph ENE3.2 kmh ENE 6.0 mph9.7 kmh 29.87 in1011.5 mb - 0.00 in0.0 mm 0.00 in0.0 mm
03:20 PM 96.0°F35.6°C 53.4°F11.9°C 24% 2.0 mph SSW3.2 kmh SSW 3.0 mph4.8 kmh 29.86 in1011.2 mb - 0.00 in0.0 mm 0.00 in0.0 mm
03:30 PM 86.1°F30.1°C 47.2°F8.4°C 26% 2.8 mph SSE4.5 kmh SSE 7.0 mph11.3 kmh 29.86 in1011.2 mb - 0.00 in0.0 mm 0.00 in0.0 mm
03:40 PM 96.0°F35.6°C 54.5°F12.5°C 25% 2.0 mph NW3.2 kmh NW 8.0 mph12.9 kmh 29.85 in1010.8 mb - 0.00 in0.0 mm 0.00 in0.0 mm
03:50 PM 96.2°F35.7°C 53.6°F12.0°C 24% 2.0 mph ESE3.2 kmh ESE 3.0 mph4.8 kmh 29.86 in1011.2 mb - 0.00 in0.0 mm 0.00 in0.0 mm
04:00 PM 95.4°F35.2°C 52.9°F11.6°C 24% 3.0 mph SE4.8 kmh SE 3.0 mph4.8 kmh 29.85 in1010.8 mb - 0.00 in0.0 mm 0.00 in0.0 mm
04:10 PM 95.7°F35.4°C 54.2°F12.3°C 25% 2.0 mph NE3.2 kmh NE 7.0 mph11.3 kmh 29.85 in1010.8 mb - 0.00 in0.0 mm 0.00 in0.0 mm
04:20 PM 94.9°F34.9°C 53.6°F12.0°C 25% 5.0 mph ENE8.0 kmh ENE 8.0 mph12.9 kmh 29.85 in1010.8 mb - 0.00 in0.0 mm 0.00 in0.0 mm
04:30 PM 85.5°F29.7°C 47.7°F8.7°C 27% 3.9 mph ESE6.3 kmh ESE 7.0 mph11.3 kmh 29.84 in1010.5 mb - 0.00 in0.0 mm 0.00 in0.0 mm
04:40 PM 94.5°F34.7°C 54.3°F12.4°C 26% Calm Calm 1.0 mph1.6 kmh 29.84 in1010.5 mb - 0.00 in0.0 mm 0.00 in0.0 mm
04:50 PM 95.0°F35.0°C 53.7°F12.1°C 25% 5.0 mph NE8.0 kmh NE 8.0 mph12.9 kmh 29.84 in1010.5 mb - 0.00 in0.0 mm 0.00 in0.0 mm
05:00 PM 93.6°F34.2°C 54.6°F12.6°C 27% 2.0 mph ENE3.2 kmh ENE 3.0 mph4.8 kmh 29.84 in1010.5 mb - 0.00 in0.0 mm 0.00 in0.0 mm
05:10 PM 93.1°F33.9°C 54.1°F12.3°C 27% 3.0 mph NE4.8 kmh NE 5.0 mph8.0 kmh 29.84 in1010.5 mb - 0.00 in0.0 mm 0.00 in0.0 mm
05:20 PM 92.2°F33.4°C 53.4°F11.9°C 27% 1.0 mph ENE1.6 kmh ENE 2.0 mph3.2 kmh 29.84 in1010.5 mb - 0.00 in0.0 mm 0.00 in0.0 mm
05:30 PM 91.7°F33.2°C 53.0°F11.7°C 27% 1.0 mph ENE1.6 kmh ENE 2.0 mph3.2 kmh 29.83 in1010.2 mb - 0.00 in0.0 mm 0.00 in0.0 mm
05:40 PM 91.3°F32.9°C 53.6°F12.0°C 28% 1.0 mph ENE1.6 kmh ENE 3.0 mph4.8 kmh 29.83 in1010.2 mb - 0.00 in0.0 mm 0.00 in0.0 mm
05:50 PM 91.1°F32.8°C 53.5°F11.9°C 28% 1.0 mph ENE1.6 kmh ENE 2.0 mph3.2 kmh 29.83 in1010.2 mb - 0.00 in0.0 mm 0.00 in0.0 mm
06:00 PM 91.1°F32.8°C 53.5°F11.9°C 28% 1.0 mph ENE1.6 kmh ENE 3.0 mph4.8 kmh 29.83 in1010.2 mb - 0.00 in0.0 mm 0.00 in0.0 mm
06:10 PM 90.7°F32.6°C 54.1°F12.3°C 29% 1.0 mph ENE1.6 kmh ENE 3.0 mph4.8 kmh 29.83 in1010.2 mb - 0.00 in0.0 mm 0.00 in0.0 mm
06:20 PM 90.4°F32.4°C 53.8°F12.1°C 29% 2.0 mph ENE3.2 kmh ENE 3.0 mph4.8 kmh 29.83 in1010.2 mb - 0.00 in0.0 mm 0.00 in0.0 mm
06:30 PM 81.0°F27.2°C 54.4°F12.4°C 40% 5.9 mph SSE9.5 kmh SSE 9.0 mph14.5 kmh 29.84 in1010.5 mb - 0.00 in0.0 mm 0.00 in0.0 mm
06:40 PM 90.0°F32.2°C 54.4°F12.4°C 30% 2.0 mph ENE3.2 kmh ENE 3.0 mph4.8 kmh 29.84 in1010.5 mb - 0.00 in0.0 mm 0.00 in0.0 mm
06:50 PM 89.7°F32.1°C 54.1°F12.3°C 30% 1.0 mph ENE1.6 kmh ENE 3.0 mph4.8 kmh 29.84 in1010.5 mb - 0.00 in0.0 mm 0.00 in0.0 mm
07:00 PM 78.6°F25.9°C 52.3°F11.3°C 40% 4.4 mph SE7.1 kmh SE 6.0 mph9.7 kmh 29.85 in1010.8 mb - 0.00 in0.0 mm 0.00 in0.0 mm
07:10 PM 87.6°F30.9°C 54.1°F12.3°C 32% 1.0 mph ENE1.6 kmh ENE 3.0 mph4.8 kmh 29.84 in1010.5 mb - 0.00 in0.0 mm 0.00 in0.0 mm
07:20 PM 86.0°F30.0°C 56.7°F13.7°C 37% Calm Calm 1.0 mph1.6 kmh 29.84 in1010.5 mb - 0.00 in0.0 mm 0.00 in0.0 mm
07:30 PM 76.8°F24.9°C 54.4°F12.4°C 46% 1.4 mph ESE2.3 kmh ESE 5.0 mph8.0 kmh 29.85 in1010.8 mb - 0.00 in0.0 mm 0.00 in0.0 mm
08:00 PM 75.3°F24.1°C 53.7°F12.1°C 47% 3.4 mph ESE5.5 kmh ESE 7.0 mph11.3 kmh 29.86 in1011.2 mb - 0.00 in0.0 mm 0.00 in0.0 mm
08:30 PM 74.7°F23.7°C 56.9°F13.8°C 54% 3.8 mph SE6.1 kmh SE 5.0 mph8.0 kmh 29.86 in1011.2 mb - 0.00 in0.0 mm 0.00 in0.0 mm
09:00 PM 74.4°F23.6°C 58.7°F14.8°C 58% 2.7 mph ESE4.3 kmh ESE 7.0 mph11.3 kmh 29.86 in1011.2 mb - 0.00 in0.0 mm 0.00 in0.0 mm
09:30 PM 73.9°F23.3°C 59.6°F15.3°C 61% 4.4 mph SE7.1 kmh SE 6.0 mph9.7 kmh 29.86 in1011.2 mb - 0.00 in0.0 mm 0.00 in0.0 mm
10:00 PM 73.9°F23.3°C 60.1°F15.6°C 62% 3.3 mph ESE5.3 kmh ESE 6.0 mph9.7 kmh 29.85 in1010.8 mb - 0.00 in0.0 mm 0.00 in0.0 mm
10:30 PM 73.5°F23.1°C 60.6°F15.9°C 64% 3.0 mph ESE4.8 kmh ESE 5.0 mph8.0 kmh 29.85 in1010.8 mb - 0.00 in0.0 mm 0.00 in0.0 mm
11:00 PM 72.8°F22.7°C 60.8°F16.0°C 66% Calm Calm -- 29.86 in1011.2 mb - 0.00 in0.0 mm 0.00 in0.0 mm
11:30 PM 72.0°F22.2°C 60.9°F16.1°C 68% 4.0 mph ESE6.4 kmh ESE 6.0 mph9.7 kmh 29.85 in1010.8 mb - 0.00 in0.0 mm 0.00 in0.0 mm